createdAt,value
2018-08-12T00:00:23.138Z,16.21
2018-08-12T00:02:52.411Z,16.08
2018-08-12T00:05:21.576Z,16.08
2018-08-12T00:07:50.711Z,16.11
2018-08-12T00:10:19.701Z,16.05
2018-08-12T00:12:48.621Z,16.07
2018-08-12T00:15:19.943Z,16.05
2018-08-12T00:17:48.889Z,15.95
2018-08-12T00:20:19.427Z,15.89
2018-08-12T00:22:48.917Z,15.92
2018-08-12T00:25:19.596Z,15.93
2018-08-12T00:27:48.483Z,15.99
2018-08-12T00:30:18.506Z,16.04
2018-08-12T00:32:47.562Z,15.93
2018-08-12T00:35:17.535Z,15.98
2018-08-12T00:37:46.533Z,15.86
2018-08-12T00:40:16.436Z,15.87
2018-08-12T00:42:46.016Z,15.87
2018-08-12T00:45:17.026Z,15.85
2018-08-12T00:47:46.335Z,15.82
2018-08-12T00:50:16.121Z,15.83
2018-08-12T00:52:45.414Z,15.75
2018-08-12T00:55:15.615Z,15.89
2018-08-12T00:57:45.334Z,15.82
2018-08-12T01:03:08.167Z,15.77
2018-08-12T01:05:36.996Z,15.75
2018-08-12T01:08:05.924Z,15.69
2018-08-12T01:10:34.897Z,15.87
2018-08-12T01:13:03.784Z,15.75
2018-08-12T01:15:32.654Z,15.72
2018-08-12T01:18:01.779Z,15.70
2018-08-12T01:20:30.710Z,15.80
2018-08-12T01:22:59.581Z,15.71
2018-08-12T01:25:28.688Z,15.59
2018-08-12T01:27:57.592Z,15.67
2018-08-12T01:30:26.558Z,15.53
2018-08-12T01:32:55.591Z,15.51
2018-08-12T01:35:24.421Z,15.46
2018-08-12T01:37:53.368Z,15.57
2018-08-12T01:40:22.321Z,15.44
2018-08-12T01:42:51.180Z,15.49
2018-08-12T01:45:21.064Z,15.46
2018-08-12T01:47:50.661Z,15.46
2018-08-12T01:50:20.373Z,15.44
2018-08-12T01:52:49.247Z,15.42
2018-08-12T01:55:18.309Z,15.39
2018-08-12T01:57:47.158Z,15.38
2018-08-12T02:00:18.647Z,15.47
2018-08-12T02:02:48.105Z,15.42
2018-08-12T02:05:17.580Z,15.38
2018-08-12T02:07:46.535Z,15.45
2018-08-12T02:10:15.509Z,15.28
2018-08-12T02:12:44.467Z,15.32
2018-08-12T02:15:13.654Z,15.49
2018-08-12T02:17:42.918Z,15.37
2018-08-12T02:20:12.915Z,15.43
2018-08-12T02:22:42.538Z,15.40
2018-08-12T02:25:12.398Z,15.47
2018-08-12T02:27:41.775Z,15.40
2018-08-12T02:30:12.122Z,15.38
2018-08-12T02:32:41.781Z,15.28
2018-08-12T02:35:11.039Z,15.34
2018-08-12T02:37:40.368Z,15.36
2018-08-12T02:40:10.041Z,15.32
2018-08-12T02:42:39.096Z,15.45
2018-08-12T02:45:10.404Z,15.20
2018-08-12T02:47:39.426Z,15.16
2018-08-12T02:50:08.297Z,15.25
2018-08-12T02:52:37.822Z,15.24
2018-08-12T02:55:08.358Z,15.35
2018-08-12T02:57:37.321Z,15.14
2018-08-12T03:00:07.068Z,15.09
2018-08-12T03:02:35.971Z,15.22
2018-08-12T03:05:05.150Z,15.16
2018-08-12T03:07:34.521Z,15.18
2018-08-12T03:10:03.529Z,15.26
2018-08-12T03:12:32.516Z,15.21
2018-08-12T03:15:01.495Z,15.30
2018-08-12T03:17:30.461Z,15.18
2018-08-12T03:19:59.316Z,15.06
2018-08-12T03:22:28.213Z,15.12
2018-08-12T03:24:57.236Z,15.08
2018-08-12T03:27:26.203Z,15.07
2018-08-12T03:29:55.226Z,15.09
2018-08-12T03:32:24.094Z,15.20
2018-08-12T03:34:53.004Z,15.20
2018-08-12T03:37:22.729Z,15.03
2018-08-12T03:39:51.706Z,15.01
2018-08-12T03:42:20.566Z,15.04
2018-08-12T03:44:49.477Z,15.05
2018-08-12T03:47:18.382Z,15.06
2018-08-12T03:49:47.226Z,15.04
2018-08-12T03:52:16.178Z,15.03
2018-08-12T03:54:45.097Z,15.12
2018-08-12T03:57:13.943Z,14.95
2018-08-12T03:59:42.839Z,15.00
2018-08-12T04:02:11.832Z,15.10
2018-08-12T04:04:40.665Z,15.02
2018-08-12T04:07:09.561Z,14.89
2018-08-12T04:09:38.520Z,14.83
2018-08-12T04:12:07.389Z,14.96
2018-08-12T04:14:36.464Z,14.92
2018-08-12T04:17:05.387Z,14.92
2018-08-12T04:19:34.270Z,14.91
2018-08-12T04:22:03.148Z,14.95
2018-08-12T04:24:32.099Z,14.86
2018-08-12T04:27:00.939Z,14.88
2018-08-12T04:29:29.841Z,14.92
2018-08-12T04:31:58.766Z,15.11
2018-08-12T04:34:27.680Z,14.83
2018-08-12T04:36:56.564Z,14.83
2018-08-12T04:39:25.529Z,14.76
2018-08-12T04:41:54.846Z,14.83
2018-08-12T04:44:23.802Z,14.94
2018-08-12T04:46:52.689Z,14.86
2018-08-12T04:49:21.637Z,14.93
2018-08-12T04:51:51.007Z,14.91
2018-08-12T04:54:19.979Z,14.81
2018-08-12T04:56:48.846Z,14.85
2018-08-12T04:59:17.767Z,14.91
2018-08-12T05:01:46.606Z,15.00
2018-08-12T05:04:15.498Z,14.86
2018-08-12T05:06:44.423Z,14.87
2018-08-12T05:09:13.269Z,14.93
2018-08-12T05:11:42.155Z,14.97
2018-08-12T05:14:11.136Z,14.88
2018-08-12T05:16:40.060Z,15.00
2018-08-12T05:19:08.882Z,14.97
2018-08-12T05:21:37.814Z,15.11
2018-08-12T05:24:06.905Z,15.14
2018-08-12T05:26:35.947Z,15.30
2018-08-12T05:29:04.908Z,15.34
2018-08-12T05:31:33.887Z,15.40
2018-08-12T05:34:02.765Z,15.48
2018-08-12T05:36:31.955Z,15.50
2018-08-12T05:39:00.933Z,15.47
2018-08-12T05:41:29.857Z,15.46
2018-08-12T05:43:58.782Z,15.45
2018-08-12T05:46:27.736Z,15.68
2018-08-12T05:48:56.594Z,15.67
2018-08-12T05:51:32.334Z,15.75
2018-08-12T05:54:01.310Z,15.74
2018-08-12T05:56:30.162Z,15.79
2018-08-12T05:58:59.090Z,15.87
2018-08-12T06:01:28.836Z,15.95
2018-08-12T06:03:57.823Z,15.86
2018-08-12T06:06:26.737Z,15.91
2018-08-12T06:08:55.739Z,15.98
2018-08-12T06:11:24.580Z,16.03
2018-08-12T06:13:53.584Z,15.89
2018-08-12T06:16:22.463Z,16.03
2018-08-12T06:18:51.409Z,16.02
2018-08-12T06:21:20.277Z,15.99
2018-08-12T06:23:49.121Z,16.05
2018-08-12T06:26:18.085Z,16.16
2018-08-12T06:28:47.119Z,16.20
2018-08-12T06:31:15.971Z,16.30
2018-08-12T06:33:45.143Z,16.40
2018-08-12T06:36:14.038Z,16.38
2018-08-12T06:38:43.442Z,16.48
2018-08-12T06:41:12.735Z,16.49
2018-08-12T06:43:41.566Z,16.40
2018-08-12T06:46:10.535Z,16.50
2018-08-12T06:48:39.436Z,16.63
2018-08-12T06:51:08.414Z,16.65
2018-08-12T06:53:37.321Z,16.66
2018-08-12T06:56:06.306Z,16.72
2018-08-12T06:58:35.204Z,16.73
2018-08-12T07:01:04.183Z,16.78
2018-08-12T07:03:33.155Z,16.91
2018-08-12T07:06:02.029Z,16.88
2018-08-12T07:08:31.021Z,16.91
2018-08-12T07:10:59.921Z,17.01
2018-08-12T07:13:28.822Z,17.04
2018-08-12T07:15:57.833Z,17.08
2018-08-12T07:18:26.661Z,17.17
2018-08-12T07:20:55.576Z,17.27
2018-08-12T07:23:24.617Z,17.26
2018-08-12T07:25:53.473Z,17.35
2018-08-12T07:28:22.376Z,17.45
2018-08-12T07:30:51.281Z,17.46
2018-08-12T07:33:20.158Z,17.54
2018-08-12T07:35:49.084Z,17.63
2018-08-12T07:38:18.038Z,17.92
2018-08-12T07:40:47.127Z,17.80
2018-08-12T07:43:16.033Z,17.75
2018-08-12T07:45:44.894Z,17.88
2018-08-12T07:48:13.800Z,17.94
2018-08-12T07:50:42.713Z,18.02
2018-08-12T07:53:11.523Z,18.03
2018-08-12T07:55:40.548Z,18.10
2018-08-12T07:58:09.387Z,18.10
2018-08-12T08:00:38.280Z,18.18
2018-08-12T08:03:07.223Z,18.23
2018-08-12T08:05:36.149Z,18.22
2018-08-12T08:08:05.123Z,18.28
2018-08-12T08:10:34.103Z,18.54
2018-08-12T08:13:03.133Z,18.66
2018-08-12T08:15:32.025Z,18.77
2018-08-12T08:18:00.942Z,18.75
2018-08-12T08:20:29.952Z,18.86
2018-08-12T08:22:58.896Z,18.85
2018-08-12T08:25:27.873Z,18.78
2018-08-12T08:27:56.701Z,18.65
2018-08-12T08:30:25.713Z,18.95
2018-08-12T08:32:54.620Z,18.93
2018-08-12T08:35:23.561Z,18.97
2018-08-12T08:37:52.481Z,19.23
2018-08-12T08:40:21.377Z,19.55
2018-08-12T08:42:50.343Z,19.49
2018-08-12T08:45:20.919Z,19.55
2018-08-12T08:47:52.208Z,19.46
2018-08-12T08:50:21.990Z,19.28
2018-08-12T08:52:50.891Z,19.41
2018-08-12T08:55:20.104Z,19.48
2018-08-12T08:57:49.027Z,19.52
2018-08-12T09:00:19.578Z,19.54
2018-08-12T09:02:49.978Z,19.46
2018-08-12T09:05:19.274Z,19.62
2018-08-12T09:07:48.441Z,19.64
2018-08-12T09:10:18.311Z,19.70
2018-08-12T09:12:47.266Z,19.74
2018-08-12T09:15:17.811Z,19.98
2018-08-12T09:17:47.439Z,19.96
2018-08-12T09:20:18.866Z,20.05
2018-08-12T09:22:47.884Z,20.03
2018-08-12T09:25:17.101Z,20.28
2018-08-12T09:27:45.981Z,20.30
2018-08-12T09:30:17.017Z,20.44
2018-08-12T09:32:46.361Z,20.43
2018-08-12T09:35:15.215Z,20.59
2018-08-12T09:37:44.211Z,20.42
2018-08-12T09:40:14.456Z,20.44
2018-08-12T09:42:44.310Z,20.63
2018-08-12T09:45:16.108Z,20.68
2018-08-12T09:47:45.097Z,21.11
2018-08-12T09:50:15.424Z,21.54
2018-08-12T09:52:44.596Z,21.39
2018-08-12T09:55:14.185Z,21.42
2018-08-12T09:57:43.170Z,21.26
2018-08-12T10:00:19.904Z,21.24
2018-08-12T10:02:49.505Z,21.31
2018-08-12T10:05:18.567Z,21.12
2018-08-12T10:07:47.685Z,20.98
2018-08-12T10:10:17.041Z,21.39
2018-08-12T10:12:46.020Z,21.81
2018-08-12T10:15:15.723Z,21.85
2018-08-12T10:17:46.619Z,21.69
2018-08-12T10:20:15.495Z,22.12
2018-08-12T10:22:44.405Z,21.76
2018-08-12T10:25:13.355Z,22.15
2018-08-12T10:27:42.214Z,22.04
2018-08-12T10:30:12.720Z,21.84
2018-08-12T10:32:41.552Z,21.79
2018-08-12T10:35:11.936Z,22.26
2018-08-12T10:37:41.358Z,21.85
2018-08-12T10:40:13.362Z,22.04
2018-08-12T10:42:42.332Z,22.00
2018-08-12T10:45:11.952Z,22.21
2018-08-12T10:47:41.070Z,22.12
2018-08-12T10:50:12.657Z,22.17
2018-08-12T10:52:42.674Z,22.53
2018-08-12T10:55:12.606Z,22.42
2018-08-12T10:57:41.623Z,22.40
2018-08-12T11:00:18.298Z,22.39
2018-08-12T11:02:47.808Z,22.22
2018-08-12T11:05:17.236Z,22.41
2018-08-12T11:07:48.190Z,22.38
2018-08-12T11:10:17.099Z,22.31
2018-08-12T11:12:46.105Z,22.50
2018-08-12T11:15:15.379Z,22.52
2018-08-12T11:17:44.552Z,22.16
2018-08-12T11:20:13.382Z,22.22
2018-08-12T11:22:42.246Z,22.08
2018-08-12T11:25:16.627Z,22.37
2018-08-12T11:27:46.391Z,22.42
2018-08-12T11:30:17.126Z,22.54
2018-08-12T11:32:46.025Z,22.53
2018-08-12T11:35:16.325Z,22.75
2018-08-12T11:37:45.705Z,22.63
2018-08-12T11:40:15.489Z,23.11
2018-08-12T11:42:44.447Z,23.11
2018-08-12T11:45:18.192Z,22.92
2018-08-12T11:47:47.994Z,23.23
2018-08-12T11:50:17.510Z,22.94
2018-08-12T11:52:47.046Z,23.24
2018-08-12T11:55:18.315Z,23.40
2018-08-12T11:57:55.400Z,23.46
2018-08-12T12:00:24.312Z,23.46
2018-08-12T12:02:55.656Z,23.53
2018-08-12T12:05:25.203Z,23.67
2018-08-12T12:07:54.079Z,23.52
2018-08-12T12:10:23.591Z,23.26
2018-08-12T12:12:53.964Z,23.24
2018-08-12T12:15:22.879Z,23.37
2018-08-12T12:17:51.929Z,23.63
2018-08-12T12:20:21.025Z,23.39
2018-08-12T12:22:49.832Z,23.43
2018-08-12T12:25:20.169Z,23.47
2018-08-12T12:27:49.135Z,23.39
2018-08-12T12:30:19.568Z,23.38
2018-08-12T12:32:49.607Z,23.66
2018-08-12T12:35:18.616Z,23.88
2018-08-12T12:37:47.666Z,24.15
2018-08-12T12:40:17.801Z,24.00
2018-08-12T12:42:47.200Z,23.76
2018-08-12T12:45:16.514Z,23.92
2018-08-12T12:47:45.716Z,23.81
2018-08-12T12:50:16.712Z,23.73
2018-08-12T12:52:46.271Z,23.59
2018-08-12T12:55:15.357Z,23.65
2018-08-12T12:57:44.476Z,23.63
2018-08-12T13:00:14.950Z,23.64
2018-08-12T13:02:44.126Z,23.74
2018-08-12T13:05:14.653Z,23.86
2018-08-12T13:07:47.037Z,24.11
2018-08-12T13:10:16.615Z,24.00
2018-08-12T13:12:45.583Z,24.12
2018-08-12T13:15:15.271Z,24.21
2018-08-12T13:17:44.188Z,24.02
2018-08-12T13:20:15.485Z,23.87
2018-08-12T13:22:45.497Z,23.95
2018-08-12T13:25:16.141Z,24.08
2018-08-12T13:27:45.405Z,24.06
2018-08-12T13:30:15.345Z,24.22
2018-08-12T13:32:45.377Z,24.18
2018-08-12T13:35:14.655Z,24.33
2018-08-12T13:37:43.899Z,24.31
2018-08-12T13:40:14.364Z,24.15
2018-08-12T13:42:44.938Z,24.15
2018-08-12T13:45:20.485Z,24.17
2018-08-12T13:47:51.649Z,24.01
2018-08-12T13:50:22.291Z,24.09
2018-08-12T13:52:52.079Z,24.23
2018-08-12T13:55:21.847Z,24.31
2018-08-12T13:57:52.653Z,24.36
2018-08-12T14:00:24.397Z,24.37
2018-08-12T14:02:53.591Z,24.48
2018-08-12T14:05:23.051Z,24.56
2018-08-12T14:07:52.813Z,24.36
2018-08-12T14:10:29.067Z,24.54
2018-08-12T14:12:59.533Z,24.46
2018-08-12T14:15:28.533Z,24.49
2018-08-12T14:17:57.501Z,24.53
2018-08-12T14:20:26.417Z,24.50
2018-08-12T14:22:58.776Z,24.51
2018-08-12T14:25:27.733Z,25.12
2018-08-12T14:27:56.703Z,25.22
2018-08-12T14:30:25.537Z,24.96
2018-08-12T14:33:01.122Z,25.14
2018-08-12T14:35:30.161Z,24.86
2018-08-12T14:37:59.074Z,25.06
2018-08-12T14:40:28.032Z,24.87
2018-08-12T14:42:56.995Z,24.71
2018-08-12T14:45:26.093Z,24.73
2018-08-12T14:47:55.224Z,24.73
2018-08-12T14:50:29.397Z,24.87
2018-08-12T14:52:58.561Z,24.87
2018-08-12T14:55:27.794Z,25.35
2018-08-12T14:57:56.909Z,25.26
2018-08-12T15:00:26.272Z,25.18
2018-08-12T15:02:55.600Z,25.11
2018-08-12T15:05:24.704Z,25.16
2018-08-12T15:07:53.970Z,25.42
2018-08-12T15:10:22.979Z,25.10
2018-08-12T15:12:51.922Z,25.01
2018-08-12T15:15:21.535Z,25.01
2018-08-12T15:17:50.865Z,24.99
2018-08-12T15:20:20.100Z,25.09
2018-08-12T15:22:49.272Z,25.36
2018-08-12T15:25:25.812Z,25.42
2018-08-12T15:28:01.918Z,25.71
2018-08-12T15:30:30.804Z,25.64
2018-08-12T15:32:59.786Z,25.44
2018-08-12T15:35:28.733Z,25.12
2018-08-12T15:37:57.593Z,25.22
2018-08-12T15:40:26.785Z,25.34
2018-08-12T15:42:55.767Z,25.21
2018-08-12T15:45:24.807Z,25.32
2018-08-12T15:47:53.793Z,25.27
2018-08-12T15:50:22.687Z,25.36
2018-08-12T15:52:53.606Z,25.28
2018-08-12T15:55:22.588Z,25.44
2018-08-12T15:57:51.586Z,25.58
2018-08-12T16:00:21.761Z,25.72
2018-08-12T16:02:50.756Z,25.96
2018-08-12T16:05:19.754Z,26.02
2018-08-12T16:07:51.575Z,25.76
2018-08-12T16:10:22.342Z,25.66
2018-08-12T16:12:54.534Z,25.70
2018-08-12T16:15:23.920Z,25.68
2018-08-12T16:17:53.658Z,25.29
2018-08-12T16:20:22.994Z,25.39
2018-08-12T16:22:52.267Z,25.40
2018-08-12T16:25:22.387Z,25.43
2018-08-12T16:27:51.721Z,25.35
2018-08-12T16:30:20.999Z,25.18
2018-08-12T16:32:50.186Z,25.25
2018-08-12T16:35:21.472Z,25.22
2018-08-12T16:37:50.632Z,25.29
2018-08-12T16:40:20.772Z,25.38
2018-08-12T16:42:50.048Z,25.40
2018-08-12T16:45:20.205Z,25.39
2018-08-12T16:47:49.226Z,25.34
2018-08-12T16:50:18.265Z,25.07
2018-08-12T16:52:47.191Z,24.96
2018-08-12T16:55:17.304Z,25.13
2018-08-12T16:57:46.831Z,25.15
2018-08-12T17:00:20.467Z,25.04
2018-08-12T17:02:51.386Z,25.00
2018-08-12T17:05:21.562Z,25.10
2018-08-12T17:07:51.067Z,24.94
2018-08-12T17:10:20.983Z,25.08
2018-08-12T17:12:49.851Z,24.91
2018-08-12T17:15:21.013Z,24.97
2018-08-12T17:17:50.474Z,24.70
2018-08-12T17:20:26.171Z,24.62
2018-08-12T17:22:56.733Z,24.71
2018-08-12T17:25:25.693Z,24.83
2018-08-12T17:27:54.622Z,24.61
2018-08-12T17:30:23.541Z,24.55
2018-08-12T17:32:52.606Z,24.61
2018-08-12T17:35:21.552Z,24.43
2018-08-12T17:37:50.477Z,24.46
2018-08-12T17:40:19.350Z,24.52
2018-08-12T17:42:48.230Z,24.47
2018-08-12T17:45:17.193Z,24.65
2018-08-12T17:47:46.427Z,24.16
2018-08-12T17:50:16.767Z,24.32
2018-08-12T17:52:45.748Z,24.42
2018-08-12T17:55:14.630Z,24.38
2018-08-12T17:57:44.451Z,24.23
2018-08-12T18:00:14.973Z,24.33
2018-08-12T18:02:43.944Z,24.32
2018-08-12T18:05:12.830Z,24.09
2018-08-12T18:07:42.250Z,24.21
2018-08-12T18:10:11.164Z,24.06
2018-08-12T18:12:40.159Z,24.17
2018-08-12T18:15:10.801Z,24.01
2018-08-12T18:17:40.147Z,23.84
2018-08-12T18:20:09.350Z,23.85
2018-08-12T18:22:38.417Z,24.01
2018-08-12T18:25:09.119Z,23.87
2018-08-12T18:27:38.144Z,23.93
2018-08-12T18:30:08.881Z,23.67
2018-08-12T18:32:37.969Z,23.75
2018-08-12T18:35:08.253Z,23.71
2018-08-12T18:37:37.305Z,23.78
2018-08-12T18:40:07.594Z,23.62
2018-08-12T18:42:36.770Z,23.77
2018-08-12T18:45:06.000Z,23.62
2018-08-12T18:47:35.298Z,23.76
2018-08-12T18:50:05.376Z,23.74
2018-08-12T18:52:34.630Z,23.81
2018-08-12T18:55:03.622Z,23.52
2018-08-12T18:57:32.500Z,23.58
2018-08-12T19:00:01.432Z,23.53
2018-08-12T19:02:30.469Z,23.51
2018-08-12T19:04:59.342Z,23.38
2018-08-12T19:07:29.159Z,23.39
2018-08-12T19:09:58.223Z,23.20
2018-08-12T19:12:27.275Z,23.27
2018-08-12T19:14:58.205Z,23.42
2018-08-12T19:17:27.541Z,23.34
2018-08-12T19:19:57.072Z,23.42
2018-08-12T19:22:28.240Z,23.30
2018-08-12T19:25:00.700Z,23.44
2018-08-12T19:27:31.981Z,23.42
2018-08-12T19:30:01.028Z,23.27
2018-08-12T19:32:30.065Z,23.31
2018-08-12T19:34:59.475Z,23.02
2018-08-12T19:37:28.409Z,23.06
2018-08-12T19:39:57.318Z,23.05
2018-08-12T19:42:26.269Z,23.23
2018-08-12T19:44:55.171Z,22.97
2018-08-12T19:47:24.826Z,22.81
2018-08-12T19:49:53.777Z,22.96
2018-08-12T19:52:22.754Z,22.93
2018-08-12T19:54:51.711Z,22.80
2018-08-12T19:57:20.639Z,22.91
2018-08-12T19:59:49.586Z,22.77
2018-08-12T20:02:18.654Z,22.65
2018-08-12T20:04:47.622Z,22.54
2018-08-12T20:07:16.505Z,22.57
2018-08-12T20:09:45.424Z,22.35
2018-08-12T20:12:14.749Z,22.51
2018-08-12T20:14:43.448Z,22.70
2018-08-12T20:17:12.421Z,22.66
2018-08-12T20:19:41.438Z,22.58
2018-08-12T20:22:13.921Z,22.62
2018-08-12T20:24:43.237Z,22.77
2018-08-12T20:27:12.727Z,22.53
2018-08-12T20:29:41.762Z,22.61
2018-08-12T20:32:10.915Z,22.58
2018-08-12T20:34:40.018Z,22.51
2018-08-12T20:37:09.792Z,22.40
2018-08-12T20:39:38.745Z,22.38
2018-08-12T20:42:08.356Z,22.29
2018-08-12T20:44:39.263Z,22.30
2018-08-12T20:47:08.283Z,22.29
2018-08-12T20:49:38.180Z,22.08
2018-08-12T20:52:07.032Z,22.18
2018-08-12T20:54:52.598Z,22.29
2018-08-12T20:57:29.444Z,22.25
2018-08-12T21:00:00.762Z,22.16
2018-08-12T21:02:29.648Z,22.17
2018-08-12T21:04:58.718Z,22.07
2018-08-12T21:07:28.633Z,22.15
2018-08-12T21:09:59.948Z,22.16
2018-08-12T21:12:30.293Z,22.02
2018-08-12T21:14:59.302Z,21.99
2018-08-12T21:17:28.250Z,21.89
2018-08-12T21:19:57.277Z,21.91
2018-08-12T21:22:26.170Z,21.83
2018-08-12T21:24:55.158Z,21.93
2018-08-12T21:27:24.161Z,21.94
2018-08-12T21:29:53.090Z,21.88
2018-08-12T21:32:22.060Z,21.79
2018-08-12T21:34:51.073Z,21.81
2018-08-12T21:37:20.377Z,21.76
2018-08-12T21:39:49.544Z,21.71
2018-08-12T21:42:18.473Z,21.79
2018-08-12T21:44:47.396Z,21.76
2018-08-12T21:47:16.487Z,21.81
2018-08-12T21:49:45.690Z,21.70
2018-08-12T21:52:14.834Z,21.71
2018-08-12T21:54:43.814Z,21.65
2018-08-12T21:57:12.820Z,21.62
2018-08-12T21:59:41.983Z,21.73
2018-08-12T22:02:10.880Z,21.66
2018-08-12T22:04:40.091Z,21.53
2018-08-12T22:07:09.048Z,21.61
2018-08-12T22:09:38.234Z,21.48
2018-08-12T22:12:07.156Z,21.50
2018-08-12T22:14:36.046Z,21.53
2018-08-12T22:17:04.899Z,21.51
2018-08-12T22:19:33.865Z,21.49
2018-08-12T22:22:02.725Z,21.49
2018-08-12T22:24:33.426Z,21.29
2018-08-12T22:27:02.696Z,21.18
2018-08-12T22:29:33.591Z,21.27
2018-08-12T22:32:02.500Z,21.28
2018-08-12T22:34:34.271Z,21.30
2018-08-12T22:37:03.150Z,21.21
2018-08-12T22:39:32.020Z,21.23
2018-08-12T22:42:01.139Z,21.17
2018-08-12T22:44:30.108Z,21.14
2018-08-12T22:46:59.616Z,21.11
2018-08-12T22:49:28.609Z,21.07
2018-08-12T22:51:57.656Z,21.08
2018-08-12T22:54:26.519Z,20.94
2018-08-12T22:56:55.471Z,20.96
2018-08-12T22:59:24.392Z,20.91
2018-08-12T23:01:53.301Z,20.76
2018-08-12T23:04:22.325Z,20.77
2018-08-12T23:06:51.316Z,20.80
2018-08-12T23:09:20.266Z,20.74
2018-08-12T23:11:49.180Z,20.86
2018-08-12T23:14:18.173Z,21.03
2018-08-12T23:16:56.807Z,20.92
2018-08-12T23:19:25.714Z,20.86
2018-08-12T23:21:54.651Z,20.83
2018-08-12T23:24:23.556Z,20.85
2018-08-12T23:26:52.468Z,20.93
2018-08-12T23:29:21.300Z,20.91
2018-08-12T23:31:50.286Z,20.79
2018-08-12T23:34:19.176Z,20.72
2018-08-12T23:36:48.027Z,20.91
2018-08-12T23:39:17.018Z,20.89
2018-08-12T23:41:46.003Z,20.88
2018-08-12T23:44:14.857Z,20.75
2018-08-12T23:46:43.860Z,20.68
2018-08-12T23:49:12.681Z,20.65
2018-08-12T23:51:41.637Z,20.73
2018-08-12T23:54:10.625Z,20.71
2018-08-12T23:56:39.517Z,20.62
2018-08-12T23:59:08.330Z,20.85
